createdAt,value
2023-03-29T00:02:41.887Z,18.85
2023-03-29T00:06:22.071Z,22.23
2023-03-29T00:09:54.193Z,19.80
2023-03-29T00:13:26.927Z,18.38
2023-03-29T00:16:59.283Z,23.90
2023-03-29T00:20:31.508Z,15.97
2023-03-29T00:24:03.806Z,29.40
2023-03-29T00:27:35.814Z,28.10
2023-03-29T00:31:11.144Z,22.50
2023-03-29T00:34:46.108Z,21.33
2023-03-29T00:38:18.440Z,17.00
2023-03-29T00:41:51.091Z,23.45
2023-03-29T00:45:30.649Z,17.93
2023-03-29T00:49:13.647Z,21.58
2023-03-29T00:52:51.069Z,22.45
2023-03-29T00:56:30.275Z,22.80
2023-03-29T01:00:05.720Z,27.60
2023-03-29T01:03:47.301Z,25.02
2023-03-29T01:07:28.414Z,29.40
2023-03-29T01:11:08.751Z,29.02
2023-03-29T01:14:46.175Z,30.88
2023-03-29T01:18:19.784Z,25.58
2023-03-29T01:21:55.976Z,18.17
2023-03-29T01:25:46.691Z,22.60
2023-03-29T01:29:31.966Z,24.80
2023-03-29T01:33:21.260Z,22.37
2023-03-29T01:37:24.667Z,19.10
2023-03-29T01:40:58.302Z,23.98
2023-03-29T01:44:40.502Z,22.50
2023-03-29T01:48:20.062Z,20.52
2023-03-29T01:52:25.866Z,24.92
2023-03-29T01:56:11.775Z,23.10
2023-03-29T01:59:45.862Z,15.23
2023-03-29T02:03:19.656Z,26.48
2023-03-29T02:06:54.262Z,18.38
2023-03-29T02:10:27.816Z,25.37
2023-03-29T02:13:59.664Z,26.33
2023-03-29T02:17:31.780Z,21.00
2023-03-29T02:21:04.115Z,23.07
2023-03-29T02:24:39.476Z,27.27
2023-03-29T02:28:12.878Z,19.23
2023-03-29T02:31:53.548Z,28.75
2023-03-29T02:35:48.597Z,30.53
2023-03-29T02:39:21.771Z,27.10
2023-03-29T02:42:56.014Z,30.00
2023-03-29T02:46:28.206Z,32.97
2023-03-29T02:50:00.562Z,26.60
2023-03-29T02:53:47.534Z,24.65
2023-03-29T02:57:26.588Z,28.47
2023-03-29T03:01:01.439Z,21.73
2023-03-29T03:04:35.776Z,23.20
2023-03-29T03:08:08.089Z,25.05
2023-03-29T03:11:40.309Z,21.53
2023-03-29T03:15:13.443Z,25.23
2023-03-29T03:18:46.120Z,19.23
2023-03-29T03:22:18.450Z,21.97
2023-03-29T03:25:50.218Z,25.27
2023-03-29T03:29:22.421Z,23.25
2023-03-29T03:32:57.582Z,24.47
2023-03-29T03:36:31.562Z,18.45
2023-03-29T03:40:04.269Z,29.33
2023-03-29T03:43:36.660Z,26.65
2023-03-29T03:47:09.116Z,18.50
2023-03-29T03:50:41.156Z,23.13
2023-03-29T03:54:13.529Z,27.45
2023-03-29T03:57:47.969Z,20.93
2023-03-29T04:01:19.807Z,22.08
2023-03-29T04:04:51.875Z,24.60
2023-03-29T04:08:24.082Z,21.23
2023-03-29T04:11:56.795Z,19.77
2023-03-29T04:15:29.903Z,22.80
2023-03-29T04:19:02.300Z,21.85
2023-03-29T04:22:34.378Z,25.67
2023-03-29T04:26:07.997Z,22.95
2023-03-29T04:29:40.165Z,24.52
2023-03-29T04:33:12.768Z,18.30
2023-03-29T04:36:44.555Z,22.38
2023-03-29T04:40:19.499Z,24.17
2023-03-29T04:43:52.618Z,21.50
2023-03-29T04:47:24.744Z,16.25
2023-03-29T04:50:57.402Z,26.65
2023-03-29T04:54:29.624Z,22.55
2023-03-29T04:58:02.663Z,20.60
2023-03-29T05:01:35.623Z,21.48
2023-03-29T05:05:08.537Z,31.90
2023-03-29T05:08:41.001Z,23.40
2023-03-29T05:12:13.218Z,27.88
2023-03-29T05:15:45.337Z,17.55
2023-03-29T05:19:17.625Z,23.10
2023-03-29T05:22:49.911Z,23.05
2023-03-29T05:26:23.298Z,36.58
2023-03-29T05:29:55.174Z,27.10
2023-03-29T05:33:27.784Z,21.13
2023-03-29T05:37:01.498Z,29.42
2023-03-29T05:40:35.802Z,25.70
2023-03-29T05:44:07.626Z,25.87
2023-03-29T05:47:39.763Z,21.45
2023-03-29T05:51:12.114Z,25.70
2023-03-29T05:54:44.218Z,24.13
2023-03-29T05:58:18.060Z,20.83
2023-03-29T06:01:50.428Z,20.45
2023-03-29T06:05:22.992Z,19.10
2023-03-29T06:08:55.098Z,26.40
2023-03-29T06:12:28.159Z,22.30
2023-03-29T06:16:01.120Z,24.02
2023-03-29T06:19:33.244Z,30.70
2023-03-29T06:23:05.136Z,28.90
2023-03-29T06:26:37.215Z,23.08
2023-03-29T06:30:09.358Z,34.37
2023-03-29T06:33:43.233Z,19.20
2023-03-29T06:37:15.051Z,19.40
2023-03-29T06:40:48.412Z,14.98
2023-03-29T06:44:20.239Z,19.13
2023-03-29T06:47:52.597Z,16.83
2023-03-29T06:51:24.512Z,19.27
2023-03-29T06:54:56.691Z,19.67
2023-03-29T06:58:28.847Z,19.27
2023-03-29T07:02:01.065Z,17.67
2023-03-29T07:05:36.442Z,16.37
2023-03-29T07:09:09.001Z,18.77
2023-03-29T07:12:41.069Z,21.85
2023-03-29T07:16:13.992Z,18.55
2023-03-29T07:19:47.359Z,16.47
2023-03-29T07:23:20.305Z,15.75
2023-03-29T07:27:03.097Z,16.98
2023-03-29T07:30:37.544Z,12.17
2023-03-29T07:34:11.108Z,12.30
2023-03-29T07:37:44.664Z,12.43
2023-03-29T07:41:18.249Z,13.73
2023-03-29T07:44:50.771Z,15.27
2023-03-29T07:48:22.593Z,11.38
2023-03-29T07:51:55.471Z,15.25
2023-03-29T07:55:27.702Z,13.63
2023-03-29T07:58:59.648Z,12.23
2023-03-29T08:02:31.930Z,13.07
2023-03-29T08:06:04.072Z,15.90
2023-03-29T08:09:37.303Z,13.90
2023-03-29T08:13:10.937Z,17.33
2023-03-29T08:16:43.131Z,14.47
2023-03-29T08:20:18.508Z,13.63
2023-03-29T08:23:51.118Z,12.88
2023-03-29T08:27:23.076Z,12.07
2023-03-29T08:30:55.259Z,13.93
2023-03-29T08:34:27.552Z,14.77
2023-03-29T08:37:59.723Z,13.07
2023-03-29T08:42:08.984Z,11.30
2023-03-29T08:45:51.126Z,12.70
2023-03-29T08:49:23.567Z,13.68
2023-03-29T08:53:00.992Z,12.88
2023-03-29T08:56:35.273Z,17.77
2023-03-29T09:00:13.860Z,12.60
2023-03-29T09:04:03.729Z,8.85
2023-03-29T09:07:35.873Z,10.77
2023-03-29T09:11:24.079Z,15.83
2023-03-29T09:15:19.502Z,16.80
2023-03-29T09:19:11.990Z,10.15
2023-03-29T09:22:52.797Z,10.77
2023-03-29T09:26:34.511Z,31.10
2023-03-29T09:30:17.174Z,11.77
2023-03-29T09:33:59.317Z,10.57
2023-03-29T09:37:34.741Z,8.90
2023-03-29T09:41:32.738Z,7.60
2023-03-29T09:45:09.374Z,9.82
2023-03-29T09:48:44.885Z,10.63
2023-03-29T09:52:17.420Z,9.45
2023-03-29T09:55:50.942Z,9.70
2023-03-29T09:59:22.787Z,9.40
2023-03-29T10:02:58.255Z,10.47
2023-03-29T10:06:30.101Z,14.68
2023-03-29T10:10:02.224Z,10.02
2023-03-29T10:13:37.348Z,10.20
2023-03-29T10:17:18.445Z,9.27
2023-03-29T10:20:50.934Z,7.72
2023-03-29T10:24:26.609Z,8.50
2023-03-29T10:28:05.213Z,7.37
2023-03-29T10:31:41.701Z,9.93
2023-03-29T10:35:43.740Z,10.85
2023-03-29T10:39:16.459Z,9.53
2023-03-29T10:42:50.758Z,9.30
2023-03-29T10:46:32.068Z,7.80
2023-03-29T10:50:06.236Z,10.05
2023-03-29T10:53:38.347Z,6.70
2023-03-29T10:57:16.758Z,7.00
2023-03-29T11:00:52.395Z,8.02
2023-03-29T11:04:48.048Z,6.00
2023-03-29T11:08:35.152Z,7.90
2023-03-29T11:12:28.646Z,5.00
2023-03-29T11:16:18.647Z,9.65
2023-03-29T11:20:19.769Z,7.32
2023-03-29T11:24:22.358Z,7.13
2023-03-29T11:27:59.093Z,15.63
2023-03-29T11:31:58.779Z,9.40
2023-03-29T11:35:54.073Z,5.40
2023-03-29T11:39:30.418Z,7.47
2023-03-29T11:43:07.952Z,6.47
2023-03-29T11:46:46.195Z,5.40
2023-03-29T11:50:19.628Z,6.03
2023-03-29T11:54:11.203Z,8.17
2023-03-29T11:58:14.877Z,6.90
2023-03-29T12:01:54.256Z,9.57
2023-03-29T12:05:39.760Z,9.05
2023-03-29T12:09:24.430Z,8.97
2023-03-29T12:13:08.206Z,10.27
2023-03-29T12:16:52.047Z,6.32
2023-03-29T12:20:31.684Z,4.93
2023-03-29T12:24:04.436Z,7.57
2023-03-29T12:27:55.177Z,5.78
2023-03-29T12:31:48.841Z,10.68
2023-03-29T12:35:23.775Z,6.30
2023-03-29T12:38:56.148Z,9.97
2023-03-29T12:42:28.310Z,5.78
2023-03-29T12:46:06.763Z,7.25
2023-03-29T12:49:39.160Z,7.63
2023-03-29T12:53:14.293Z,7.13
2023-03-29T12:56:57.054Z,4.72
2023-03-29T13:00:36.618Z,8.48
2023-03-29T13:04:34.400Z,8.33
2023-03-29T13:08:27.160Z,7.10
2023-03-29T13:12:11.383Z,7.95
2023-03-29T13:15:45.325Z,8.20
2023-03-29T13:19:46.799Z,7.67
2023-03-29T13:23:31.889Z,10.63
2023-03-29T13:27:28.020Z,8.18
2023-03-29T13:31:11.071Z,6.95
2023-03-29T13:34:55.080Z,7.22
2023-03-29T13:38:31.822Z,8.03
2023-03-29T13:42:19.733Z,8.88
2023-03-29T13:46:06.780Z,11.90
2023-03-29T13:49:41.057Z,8.83
2023-03-29T13:53:21.526Z,6.20
2023-03-29T13:57:02.719Z,7.18
2023-03-29T14:00:41.591Z,9.95
2023-03-29T14:04:30.708Z,6.03
2023-03-29T14:08:13.438Z,9.53
2023-03-29T14:11:47.294Z,6.72
2023-03-29T14:15:34.937Z,6.20
2023-03-29T14:19:14.531Z,5.67
2023-03-29T14:22:54.017Z,9.47
2023-03-29T14:26:34.654Z,5.90
2023-03-29T14:30:27.583Z,7.95
2023-03-29T14:34:01.425Z,5.60
2023-03-29T14:37:34.184Z,7.10
2023-03-29T14:41:07.502Z,8.68
2023-03-29T14:44:39.496Z,6.95
2023-03-29T14:48:13.816Z,4.53
2023-03-29T14:51:47.143Z,9.27
2023-03-29T14:55:23.912Z,7.60
2023-03-29T14:58:57.226Z,6.40
2023-03-29T15:02:34.037Z,5.57
2023-03-29T15:06:06.717Z,4.55
2023-03-29T15:09:40.063Z,8.30
2023-03-29T15:13:18.544Z,5.13
2023-03-29T15:16:53.468Z,4.53
2023-03-29T15:20:29.151Z,4.13
2023-03-29T15:24:04.116Z,4.75
2023-03-29T15:27:42.711Z,9.37
2023-03-29T15:31:18.687Z,3.45
2023-03-29T15:35:06.199Z,4.20
2023-03-29T15:38:45.186Z,3.30
2023-03-29T15:42:17.377Z,2.27
2023-03-29T15:45:52.260Z,2.88
2023-03-29T15:49:24.866Z,4.68
2023-03-29T15:53:08.592Z,4.53
2023-03-29T15:56:49.908Z,3.40
2023-03-29T16:00:23.701Z,3.42
2023-03-29T16:03:55.930Z,5.85
2023-03-29T16:07:28.142Z,12.27
2023-03-29T16:11:00.759Z,6.10
2023-03-29T16:14:33.642Z,3.95
2023-03-29T16:18:07.843Z,8.23
2023-03-29T16:21:40.665Z,6.30
2023-03-29T16:25:18.462Z,7.73
2023-03-29T16:28:52.146Z,5.78
2023-03-29T16:32:24.172Z,4.32
2023-03-29T16:35:56.638Z,5.40
2023-03-29T16:39:31.044Z,5.55
2023-03-29T16:43:04.087Z,5.07
2023-03-29T16:46:35.940Z,6.47
2023-03-29T16:50:15.338Z,5.43
2023-03-29T16:53:48.958Z,7.28
2023-03-29T16:57:21.115Z,5.85
2023-03-29T17:00:53.817Z,8.00
2023-03-29T17:04:26.314Z,6.53
2023-03-29T17:07:58.504Z,6.30
2023-03-29T17:11:30.762Z,8.10
2023-03-29T17:15:05.167Z,7.17
2023-03-29T17:18:39.429Z,7.63
2023-03-29T17:22:11.782Z,6.47
2023-03-29T17:25:44.031Z,7.88
2023-03-29T17:29:18.603Z,9.40
2023-03-29T17:32:54.483Z,6.88
2023-03-29T17:36:28.283Z,6.72
2023-03-29T17:40:01.243Z,6.77
2023-03-29T17:43:34.405Z,10.03
2023-03-29T17:47:06.722Z,14.60
2023-03-29T17:50:39.292Z,10.50
2023-03-29T17:54:12.251Z,9.13
2023-03-29T17:57:44.438Z,11.57
2023-03-29T18:01:19.665Z,10.05
2023-03-29T18:04:52.875Z,7.80
2023-03-29T18:08:25.122Z,8.10
2023-03-29T18:11:57.207Z,10.05
2023-03-29T18:15:29.553Z,11.25
2023-03-29T18:19:01.808Z,10.97
2023-03-29T18:22:34.165Z,9.40
2023-03-29T18:26:07.952Z,9.90
2023-03-29T18:29:39.772Z,11.38
2023-03-29T18:33:11.982Z,10.00
2023-03-29T18:36:43.871Z,8.23
2023-03-29T18:40:20.963Z,8.88
2023-03-29T18:43:55.129Z,7.87
2023-03-29T18:47:27.480Z,7.70
2023-03-29T18:51:25.938Z,10.48
2023-03-29T18:54:58.057Z,10.32
2023-03-29T18:58:30.727Z,11.17
2023-03-29T19:02:03.662Z,11.18
2023-03-29T19:05:39.275Z,12.05
2023-03-29T19:09:11.412Z,11.53
2023-03-29T19:12:44.069Z,11.77
2023-03-29T19:16:16.456Z,12.20
2023-03-29T19:19:48.637Z,10.98
2023-03-29T19:23:21.908Z,14.47
2023-03-29T19:26:54.281Z,12.60
2023-03-29T19:30:27.742Z,14.88
2023-03-29T19:33:59.749Z,11.50
2023-03-29T19:37:32.260Z,15.15
2023-03-29T19:41:07.720Z,13.40
2023-03-29T19:44:39.853Z,12.25
2023-03-29T19:48:21.113Z,15.63
2023-03-29T19:51:55.616Z,12.82
2023-03-29T19:55:27.469Z,14.52
2023-03-29T19:58:59.528Z,14.87
2023-03-29T20:02:31.404Z,12.25
2023-03-29T20:06:03.841Z,16.08
2023-03-29T20:09:35.955Z,13.57
2023-03-29T20:13:08.038Z,12.60
2023-03-29T20:16:40.907Z,11.63
2023-03-29T20:20:14.330Z,14.60
2023-03-29T20:23:46.676Z,14.57
2023-03-29T20:27:18.995Z,12.77
2023-03-29T20:30:51.755Z,9.23
2023-03-29T20:34:23.878Z,12.85
2023-03-29T20:37:56.089Z,15.20
2023-03-29T20:41:28.273Z,12.90
2023-03-29T20:45:01.390Z,11.20
2023-03-29T20:48:36.431Z,12.30
2023-03-29T20:52:15.911Z,16.98
2023-03-29T20:55:48.124Z,11.68
2023-03-29T20:59:23.049Z,14.52
2023-03-29T21:02:56.428Z,16.30
2023-03-29T21:06:28.614Z,14.50
2023-03-29T21:10:01.165Z,18.27
2023-03-29T21:13:36.496Z,17.57
2023-03-29T21:17:09.439Z,15.47
2023-03-29T21:20:42.080Z,13.85
2023-03-29T21:24:13.871Z,14.85
2023-03-29T21:27:46.248Z,13.47
2023-03-29T21:31:18.282Z,15.15
2023-03-29T21:34:50.412Z,14.63
2023-03-29T21:38:22.651Z,14.23
2023-03-29T21:41:54.948Z,14.50
2023-03-29T21:45:27.275Z,12.70
2023-03-29T21:49:02.655Z,15.18
2023-03-29T21:52:35.003Z,12.03
2023-03-29T21:56:08.282Z,11.30
2023-03-29T21:59:40.839Z,12.20
2023-03-29T22:03:13.066Z,13.00
2023-03-29T22:06:45.260Z,16.63
2023-03-29T22:10:17.553Z,15.77
2023-03-29T22:13:53.172Z,11.80
2023-03-29T22:17:26.721Z,15.10
2023-03-29T22:20:58.937Z,13.73
2023-03-29T22:24:30.992Z,17.67
2023-03-29T22:28:03.055Z,15.95
2023-03-29T22:31:34.883Z,17.67
2023-03-29T22:35:07.884Z,14.85
2023-03-29T22:38:39.823Z,14.10
2023-03-29T22:42:12.056Z,13.77
2023-03-29T22:45:44.226Z,17.70
2023-03-29T22:49:16.066Z,16.13
2023-03-29T22:52:48.261Z,15.27
2023-03-29T22:56:20.518Z,14.53
2023-03-29T22:59:53.688Z,15.00
2023-03-29T23:03:26.742Z,17.98
2023-03-29T23:06:59.133Z,14.67
2023-03-29T23:10:33.885Z,13.23
2023-03-29T23:14:08.699Z,16.33
2023-03-29T23:17:40.949Z,12.60
2023-03-29T23:21:13.061Z,17.50
2023-03-29T23:24:47.274Z,16.70
2023-03-29T23:28:23.653Z,14.88
2023-03-29T23:31:56.950Z,16.30
2023-03-29T23:35:32.312Z,17.15
2023-03-29T23:39:07.140Z,17.10
2023-03-29T23:42:40.496Z,14.57
2023-03-29T23:46:15.493Z,18.38
2023-03-29T23:49:47.862Z,17.02
2023-03-29T23:53:20.914Z,16.58
2023-03-29T23:56:53.477Z,14.17
